createdAt,value
2023-04-09T00:02:17.978Z,58.77
2023-04-09T00:04:47.645Z,58.82
2023-04-09T00:07:16.176Z,58.90
2023-04-09T00:09:44.420Z,59.12
2023-04-09T00:12:12.875Z,59.12
2023-04-09T00:14:41.145Z,59.09
2023-04-09T00:17:09.389Z,59.21
2023-04-09T00:19:37.625Z,59.18
2023-04-09T00:22:07.308Z,59.26
2023-04-09T00:24:35.602Z,59.21
2023-04-09T00:27:03.829Z,59.13
2023-04-09T00:29:54.866Z,59.21
2023-04-09T00:32:41.775Z,59.34
2023-04-09T00:35:21.955Z,59.29
2023-04-09T00:37:51.647Z,59.34
2023-04-09T00:40:19.922Z,59.31
2023-04-09T00:42:48.297Z,59.20
2023-04-09T00:45:16.642Z,59.25
2023-04-09T00:47:46.477Z,59.26
2023-04-09T00:50:14.826Z,59.13
2023-04-09T00:52:43.681Z,59.32
2023-04-09T00:55:14.509Z,59.25
2023-04-09T00:57:42.844Z,59.31
2023-04-09T01:00:40.545Z,59.32
2023-04-09T01:03:09.647Z,59.24
2023-04-09T01:05:44.321Z,59.24
2023-04-09T01:08:20.406Z,59.35
2023-04-09T01:10:57.435Z,59.19
2023-04-09T01:13:31.966Z,59.21
2023-04-09T01:16:03.032Z,59.10
2023-04-09T01:18:37.674Z,59.27
2023-04-09T01:21:11.027Z,59.27
2023-04-09T01:23:48.817Z,59.26
2023-04-09T01:26:30.927Z,59.25
2023-04-09T01:29:02.014Z,59.24
2023-04-09T01:31:33.498Z,59.29
2023-04-09T01:34:02.962Z,59.32
2023-04-09T01:36:32.786Z,59.17
2023-04-09T01:39:02.900Z,59.26
2023-04-09T01:41:33.797Z,59.28
2023-04-09T01:44:05.584Z,59.27
2023-04-09T01:46:35.273Z,59.25
2023-04-09T01:49:04.397Z,59.36
2023-04-09T01:51:33.837Z,59.41
2023-04-09T01:54:02.144Z,59.36
2023-04-09T01:56:41.343Z,59.41
2023-04-09T01:59:11.145Z,59.48
2023-04-09T02:01:45.508Z,59.42
2023-04-09T02:04:19.247Z,59.63
2023-04-09T02:06:54.848Z,59.42
2023-04-09T02:09:25.088Z,59.28
2023-04-09T02:11:54.550Z,59.48
2023-04-09T02:14:27.187Z,59.52
2023-04-09T02:16:55.677Z,59.59
2023-04-09T02:19:23.967Z,59.54
2023-04-09T02:21:52.242Z,59.63
2023-04-09T02:24:20.547Z,59.60
2023-04-09T02:26:48.825Z,59.46
2023-04-09T02:29:17.055Z,59.53
2023-04-09T02:31:47.149Z,59.48
2023-04-09T02:34:15.448Z,59.48
2023-04-09T02:36:43.669Z,59.70
2023-04-09T02:39:11.900Z,59.54
2023-04-09T02:41:40.159Z,59.55
2023-04-09T02:44:08.509Z,59.60
2023-04-09T02:46:36.879Z,59.63
2023-04-09T02:49:07.060Z,59.45
2023-04-09T02:51:36.369Z,59.46
2023-04-09T02:54:05.522Z,59.36
2023-04-09T02:56:33.874Z,59.25
2023-04-09T02:59:02.109Z,59.38
2023-04-09T03:01:30.410Z,59.22
2023-04-09T03:03:58.885Z,59.19
2023-04-09T03:06:28.602Z,59.25
2023-04-09T03:08:56.922Z,59.26
2023-04-09T03:11:25.161Z,59.22
2023-04-09T03:13:53.703Z,59.29
2023-04-09T03:16:22.493Z,59.19
2023-04-09T03:18:51.032Z,59.23
2023-04-09T03:21:19.735Z,59.24
2023-04-09T03:23:52.251Z,59.03
2023-04-09T03:26:20.632Z,59.12
2023-04-09T03:28:51.151Z,59.10
2023-04-09T03:31:19.629Z,59.28
2023-04-09T03:33:48.488Z,59.16
2023-04-09T03:36:16.797Z,59.06
2023-04-09T03:38:57.815Z,58.99
2023-04-09T03:41:31.384Z,59.06
2023-04-09T03:44:04.135Z,59.06
2023-04-09T03:46:39.485Z,59.00
2023-04-09T03:49:09.805Z,58.91
2023-04-09T03:51:42.740Z,58.90
2023-04-09T03:54:12.513Z,58.90
2023-04-09T03:56:42.030Z,58.90
2023-04-09T03:59:13.608Z,59.05
2023-04-09T04:01:45.924Z,58.69
2023-04-09T04:04:14.855Z,59.03
2023-04-09T04:06:51.571Z,58.77
2023-04-09T04:09:28.564Z,59.01
2023-04-09T04:12:03.437Z,59.08
2023-04-09T04:15:05.975Z,58.86
2023-04-09T04:17:46.508Z,58.89
2023-04-09T04:20:24.302Z,58.85
2023-04-09T04:23:02.401Z,58.87
2023-04-09T04:25:32.685Z,58.74
2023-04-09T04:28:01.727Z,58.87
2023-04-09T04:30:38.790Z,58.67
2023-04-09T04:33:09.903Z,58.91
2023-04-09T04:36:04.809Z,58.75
2023-04-09T04:38:38.287Z,58.95
2023-04-09T04:41:13.597Z,58.88
2023-04-09T04:43:48.187Z,58.72
2023-04-09T04:46:21.765Z,58.87
2023-04-09T04:48:50.498Z,58.81
2023-04-09T04:51:19.289Z,59.02
2023-04-09T04:53:59.782Z,58.81
2023-04-09T04:56:30.048Z,58.93
2023-04-09T04:59:06.655Z,59.05
2023-04-09T05:01:47.656Z,58.97
2023-04-09T05:04:16.375Z,58.99
2023-04-09T05:06:44.599Z,58.70
2023-04-09T05:09:21.193Z,58.64
2023-04-09T05:12:02.564Z,58.73
2023-04-09T05:14:31.306Z,58.77
2023-04-09T05:16:59.631Z,58.60
2023-04-09T05:19:35.325Z,58.91
2023-04-09T05:22:04.830Z,58.83
2023-04-09T05:24:33.415Z,58.86
2023-04-09T05:27:03.504Z,58.54
2023-04-09T05:29:31.714Z,59.02
2023-04-09T05:32:00.859Z,59.02
2023-04-09T05:34:36.808Z,58.62
2023-04-09T05:37:06.484Z,58.61
2023-04-09T05:39:35.801Z,58.91
2023-04-09T05:42:06.694Z,58.78
2023-04-09T05:44:52.038Z,58.90
2023-04-09T05:47:22.063Z,58.95
2023-04-09T05:50:05.383Z,58.93
2023-04-09T05:52:34.277Z,59.22
2023-04-09T05:55:03.623Z,59.11
2023-04-09T05:57:45.444Z,58.93
2023-04-09T06:00:15.214Z,59.12
2023-04-09T06:02:47.330Z,58.83
2023-04-09T06:05:15.992Z,59.17
2023-04-09T06:07:44.269Z,59.09
2023-04-09T06:10:12.978Z,59.06
2023-04-09T06:12:41.258Z,58.92
2023-04-09T06:15:12.797Z,59.51
2023-04-09T06:17:41.249Z,59.09
2023-04-09T06:20:10.697Z,59.38
2023-04-09T06:22:38.940Z,59.24
2023-04-09T06:25:08.042Z,59.23
2023-04-09T06:27:36.542Z,59.20
2023-04-09T06:30:05.226Z,59.52
2023-04-09T06:32:43.695Z,59.57
2023-04-09T06:35:19.504Z,59.77
2023-04-09T06:37:47.841Z,59.82
2023-04-09T06:40:16.219Z,59.25
2023-04-09T06:42:44.437Z,59.69
2023-04-09T06:45:21.218Z,60.02
2023-04-09T06:47:51.125Z,59.81
2023-04-09T06:50:19.653Z,60.11
2023-04-09T06:52:47.864Z,60.05
2023-04-09T06:55:16.581Z,60.34
2023-04-09T06:57:44.800Z,60.30
2023-04-09T07:00:14.066Z,60.34
2023-04-09T07:02:42.568Z,60.10
2023-04-09T07:05:13.090Z,60.49
2023-04-09T07:07:41.379Z,61.28
2023-04-09T07:10:10.371Z,60.88
2023-04-09T07:12:38.613Z,60.99
2023-04-09T07:15:08.409Z,61.77
2023-04-09T07:17:36.802Z,60.99
2023-04-09T07:20:05.644Z,61.43
2023-04-09T07:22:37.404Z,60.53
2023-04-09T07:25:06.462Z,60.80
2023-04-09T07:27:34.730Z,60.75
2023-04-09T07:30:03.290Z,61.29
2023-04-09T07:32:32.184Z,61.10
2023-04-09T07:35:00.651Z,61.18
2023-04-09T07:37:28.863Z,61.16
2023-04-09T07:39:58.456Z,61.01
2023-04-09T07:42:27.331Z,61.42
2023-04-09T07:44:56.636Z,61.30
2023-04-09T07:47:25.307Z,60.76
2023-04-09T07:49:53.509Z,61.28
2023-04-09T07:52:21.823Z,61.09
2023-04-09T07:54:50.043Z,61.61
2023-04-09T07:57:19.677Z,61.52
2023-04-09T07:59:49.865Z,61.82
2023-04-09T08:02:18.197Z,61.43
2023-04-09T08:04:46.919Z,63.26
2023-04-09T08:07:15.286Z,62.79
2023-04-09T08:09:43.578Z,62.36
2023-04-09T08:12:12.165Z,62.00
2023-04-09T08:14:41.760Z,62.53
2023-04-09T08:17:10.006Z,62.76
2023-04-09T08:19:41.152Z,63.05
2023-04-09T08:22:10.212Z,63.61
2023-04-09T08:24:40.218Z,62.93
2023-04-09T08:27:08.476Z,63.54
2023-04-09T08:29:36.730Z,62.55
2023-04-09T08:32:06.589Z,63.47
2023-04-09T08:34:34.881Z,64.62
2023-04-09T08:37:03.123Z,64.56
2023-04-09T08:39:31.821Z,65.79
2023-04-09T08:42:01.774Z,66.03
2023-04-09T08:44:30.605Z,64.53
2023-04-09T08:47:00.845Z,64.62
2023-04-09T08:49:32.873Z,65.95
2023-04-09T08:52:01.257Z,63.17
2023-04-09T08:54:29.521Z,64.76
2023-04-09T08:56:58.794Z,64.78
2023-04-09T08:59:27.310Z,64.27
2023-04-09T09:02:08.773Z,68.33
2023-04-09T09:04:48.668Z,65.25
2023-04-09T09:07:17.774Z,66.43
2023-04-09T09:09:58.096Z,64.97
2023-04-09T09:12:47.044Z,66.48
2023-04-09T09:15:27.847Z,68.89
2023-04-09T09:17:57.723Z,66.78
2023-04-09T09:20:29.279Z,67.41
2023-04-09T09:22:57.693Z,67.39
2023-04-09T09:25:26.707Z,66.24
2023-04-09T09:27:55.847Z,66.94
2023-04-09T09:30:25.732Z,67.07
2023-04-09T09:32:55.182Z,65.03
2023-04-09T09:35:23.628Z,66.16
2023-04-09T09:38:04.955Z,67.11
2023-04-09T09:40:33.336Z,67.30
2023-04-09T09:43:01.544Z,65.37
2023-04-09T09:45:31.440Z,65.91
2023-04-09T09:48:00.038Z,65.83
2023-04-09T09:50:32.382Z,68.14
2023-04-09T09:53:05.965Z,66.18
2023-04-09T09:55:35.787Z,68.97
2023-04-09T09:58:12.030Z,67.07
2023-04-09T10:00:42.093Z,62.34
2023-04-09T10:03:15.909Z,67.35
2023-04-09T10:05:44.869Z,68.90
2023-04-09T10:08:14.620Z,64.37
2023-04-09T10:10:44.721Z,67.69
2023-04-09T10:13:32.412Z,66.34
2023-04-09T10:16:01.791Z,66.24
2023-04-09T10:18:33.471Z,67.46
2023-04-09T10:21:10.401Z,66.36
2023-04-09T10:23:42.288Z,67.00
2023-04-09T10:26:10.638Z,66.44
2023-04-09T10:28:39.214Z,68.01
2023-04-09T10:31:08.889Z,65.62
2023-04-09T10:33:38.443Z,66.53
2023-04-09T10:36:10.892Z,67.44
2023-04-09T10:38:41.768Z,68.33
2023-04-09T10:41:16.024Z,67.43
2023-04-09T10:43:44.472Z,67.14
2023-04-09T10:46:29.524Z,66.41
2023-04-09T10:49:11.690Z,66.50
2023-04-09T10:51:40.456Z,68.83
2023-04-09T10:54:40.080Z,66.98
2023-04-09T10:57:13.768Z,64.76
2023-04-09T10:59:44.860Z,66.67
2023-04-09T11:02:59.087Z,64.55
2023-04-09T11:05:33.617Z,64.99
2023-04-09T11:08:06.799Z,66.92
2023-04-09T11:10:37.192Z,67.30
2023-04-09T11:13:05.558Z,66.68
2023-04-09T11:15:36.353Z,67.75
2023-04-09T11:18:06.905Z,67.83
2023-04-09T11:20:35.796Z,66.10
2023-04-09T11:23:04.379Z,69.15
2023-04-09T11:25:34.996Z,115.83
2023-04-09T11:28:06.187Z,-2.66
2023-04-09T11:30:35.779Z,-5.76
2023-04-09T11:33:04.615Z,-3.90
2023-04-09T11:35:36.772Z,-4.34
2023-04-09T11:38:07.933Z,-4.93
2023-04-09T11:40:36.858Z,117.97
2023-04-09T11:43:09.595Z,-3.67
2023-04-09T11:45:38.385Z,-5.60
2023-04-09T11:48:07.161Z,-5.74
2023-04-09T11:50:36.033Z,-1.67
2023-04-09T11:53:17.211Z,1.45
2023-04-09T11:55:49.368Z,1.93
2023-04-09T11:58:19.132Z,1.26
2023-04-09T12:00:47.400Z,0.56
2023-04-09T12:03:17.054Z,1.61
2023-04-09T12:05:50.896Z,1.26
2023-04-09T12:08:24.784Z,2.88
2023-04-09T12:10:54.132Z,2.37
2023-04-09T12:13:33.689Z,-0.83
2023-04-09T12:16:03.273Z,-0.89
2023-04-09T12:18:31.601Z,-0.19
2023-04-09T12:21:01.437Z,0.72
2023-04-09T12:23:31.459Z,1.86
2023-04-09T12:26:01.323Z,0.25
2023-04-09T12:28:31.315Z,1.80
2023-04-09T12:30:59.724Z,0.46
2023-04-09T12:33:28.299Z,-2.40
2023-04-09T12:35:58.455Z,-2.21
2023-04-09T12:38:26.908Z,-4.67
2023-04-09T12:40:55.465Z,-4.05
2023-04-09T12:43:23.698Z,-3.18
2023-04-09T12:45:53.430Z,-1.79
2023-04-09T12:48:21.829Z,-2.71
2023-04-09T12:50:50.123Z,-0.32
2023-04-09T12:53:18.478Z,0.18
2023-04-09T12:55:46.929Z,-5.02
2023-04-09T12:58:15.408Z,-5.01
2023-04-09T13:00:43.665Z,117.72
2023-04-09T13:03:16.588Z,117.55
2023-04-09T13:05:45.341Z,-4.50
2023-04-09T13:08:13.638Z,-5.60
2023-04-09T13:10:41.927Z,-2.86
2023-04-09T13:13:12.219Z,-2.18
2023-04-09T13:15:43.269Z,-3.82
2023-04-09T13:18:13.553Z,-1.99
2023-04-09T13:20:41.932Z,-0.00
2023-04-09T13:23:10.136Z,-0.48
2023-04-09T13:25:38.346Z,-3.59
2023-04-09T13:28:06.626Z,-3.99
2023-04-09T13:30:35.134Z,-3.14
2023-04-09T13:33:03.616Z,117.66
2023-04-09T13:35:33.424Z,117.77
2023-04-09T13:38:02.008Z,117.20
2023-04-09T13:40:30.404Z,117.14
2023-04-09T13:42:58.704Z,115.68
2023-04-09T13:45:26.939Z,117.31
2023-04-09T13:47:55.282Z,116.46
2023-04-09T13:50:23.550Z,117.38
2023-04-09T13:52:53.200Z,-5.03
2023-04-09T13:55:21.435Z,-4.74
2023-04-09T13:57:49.717Z,114.70
2023-04-09T14:00:19.876Z,115.44
2023-04-09T14:02:48.280Z,115.67
2023-04-09T14:05:17.038Z,115.75
2023-04-09T14:07:45.324Z,118.40
2023-04-09T14:10:14.974Z,118.64
2023-04-09T14:12:43.876Z,116.73
2023-04-09T14:15:12.460Z,116.31
2023-04-09T14:17:41.217Z,116.40
2023-04-09T14:20:10.374Z,118.18
2023-04-09T14:22:38.630Z,117.47
2023-04-09T14:25:07.911Z,-5.60
2023-04-09T14:27:39.011Z,-4.68
2023-04-09T14:30:08.826Z,-4.24
2023-04-09T14:32:37.259Z,117.00
2023-04-09T14:35:06.111Z,115.80
2023-04-09T14:37:34.388Z,107.13
2023-04-09T14:40:02.758Z,108.40
2023-04-09T14:42:31.455Z,103.66
2023-04-09T14:45:01.071Z,101.05
2023-04-09T14:47:29.307Z,98.13
2023-04-09T14:49:57.610Z,97.34
2023-04-09T14:52:25.931Z,99.70
2023-04-09T14:54:54.176Z,98.23
2023-04-09T14:57:22.426Z,93.46
2023-04-09T14:59:50.874Z,95.37
2023-04-09T15:02:20.710Z,98.95
2023-04-09T15:04:49.272Z,95.24
2023-04-09T15:07:17.598Z,95.89
2023-04-09T15:09:45.840Z,92.66
2023-04-09T15:12:14.083Z,92.99
2023-04-09T15:14:42.330Z,89.34
2023-04-09T15:17:10.550Z,95.68
2023-04-09T15:19:40.380Z,97.05
2023-04-09T15:22:08.729Z,97.10
2023-04-09T15:24:36.963Z,95.50
2023-04-09T15:27:05.689Z,92.75
2023-04-09T15:29:34.107Z,95.54
2023-04-09T15:32:02.489Z,100.98
2023-04-09T15:34:30.867Z,100.73
2023-04-09T15:37:00.482Z,95.86
2023-04-09T15:39:29.745Z,93.97
2023-04-09T15:41:58.064Z,97.45
2023-04-09T15:44:26.580Z,98.74
2023-04-09T15:46:54.903Z,102.22
2023-04-09T15:49:23.598Z,99.38
2023-04-09T15:51:51.807Z,99.22
2023-04-09T15:54:21.418Z,99.50
2023-04-09T15:56:49.902Z,97.42
2023-04-09T15:59:18.968Z,98.10
2023-04-09T16:01:47.293Z,98.87
2023-04-09T16:04:15.632Z,98.68
2023-04-09T16:06:43.912Z,98.67
2023-04-09T16:09:12.162Z,101.19
2023-04-09T16:11:41.813Z,103.86
2023-04-09T16:14:10.577Z,100.92
2023-04-09T16:16:38.934Z,102.44
2023-04-09T16:19:07.249Z,101.94
2023-04-09T16:21:35.570Z,98.75
2023-04-09T16:24:03.959Z,96.77
2023-04-09T16:26:32.206Z,97.85
2023-04-09T16:29:04.116Z,98.28
2023-04-09T16:31:32.493Z,99.09
2023-04-09T16:34:00.741Z,99.61
2023-04-09T16:36:29.228Z,98.94
2023-04-09T16:38:57.520Z,98.27
2023-04-09T16:41:25.871Z,98.55
2023-04-09T16:43:54.118Z,96.56
2023-04-09T16:46:23.853Z,95.71
2023-04-09T16:48:52.486Z,94.82
2023-04-09T16:51:21.160Z,94.07
2023-04-09T16:53:49.514Z,95.82
2023-04-09T16:56:17.801Z,96.71
2023-04-09T16:58:46.637Z,96.36
2023-04-09T17:01:14.896Z,97.00
2023-04-09T17:03:44.695Z,100.86
2023-04-09T17:06:13.149Z,105.05
2023-04-09T17:08:41.432Z,107.93
2023-04-09T17:11:09.666Z,105.74
2023-04-09T17:13:37.928Z,106.76
2023-04-09T17:16:06.986Z,107.00
2023-04-09T17:18:35.446Z,108.88
2023-04-09T17:21:05.454Z,107.73
2023-04-09T17:23:33.723Z,107.24
2023-04-09T17:26:02.772Z,106.92
2023-04-09T17:28:31.025Z,108.05
2023-04-09T17:30:59.314Z,107.90
2023-04-09T17:33:27.596Z,108.30
2023-04-09T17:35:57.647Z,108.05
2023-04-09T17:38:27.503Z,109.15
2023-04-09T17:40:55.909Z,109.56
2023-04-09T17:43:24.207Z,109.97
2023-04-09T17:45:52.542Z,110.55
2023-04-09T17:48:20.902Z,111.18
2023-04-09T17:50:50.080Z,111.81
2023-04-09T17:53:18.542Z,111.42
2023-04-09T17:55:50.849Z,113.18
2023-04-09T17:58:19.092Z,112.68
2023-04-09T18:00:47.516Z,112.26
2023-04-09T18:03:16.608Z,113.72
2023-04-09T18:05:45.095Z,113.33
2023-04-09T18:08:13.542Z,113.20
2023-04-09T18:10:41.923Z,113.15
2023-04-09T18:13:11.572Z,114.25
2023-04-09T18:15:39.803Z,112.99
2023-04-09T18:18:08.097Z,113.67
2023-04-09T18:20:36.329Z,114.61
2023-04-09T18:23:04.588Z,114.14
2023-04-09T18:25:32.902Z,114.44
2023-04-09T18:28:01.181Z,114.43
2023-04-09T18:30:31.214Z,114.28
2023-04-09T18:32:59.546Z,114.40
2023-04-09T18:35:28.871Z,114.50
2023-04-09T18:37:57.299Z,114.78
2023-04-09T18:40:25.731Z,114.03
2023-04-09T18:42:53.993Z,115.22
2023-04-09T18:45:22.496Z,115.10
2023-04-09T18:47:52.315Z,114.78
2023-04-09T18:50:20.750Z,114.67
2023-04-09T18:52:48.957Z,115.09
2023-04-09T18:55:18.218Z,115.32
2023-04-09T18:57:47.280Z,115.14
2023-04-09T19:00:16.270Z,115.77
2023-04-09T19:02:44.850Z,113.77
2023-04-09T19:05:14.780Z,114.16
2023-04-09T19:07:43.464Z,114.32
2023-04-09T19:10:11.957Z,113.97
2023-04-09T19:12:46.701Z,114.67
2023-04-09T19:15:15.109Z,114.55
2023-04-09T19:17:43.431Z,114.50
2023-04-09T19:20:12.665Z,113.92
2023-04-09T19:22:42.327Z,114.44
2023-04-09T19:25:11.229Z,114.67
2023-04-09T19:27:40.138Z,114.33
2023-04-09T19:30:09.322Z,114.67
2023-04-09T19:32:38.051Z,114.62
2023-04-09T19:35:08.120Z,114.85
2023-04-09T19:37:36.451Z,114.22
2023-04-09T19:40:07.175Z,115.34
2023-04-09T19:42:35.508Z,114.17
2023-04-09T19:45:03.811Z,114.18
2023-04-09T19:47:32.340Z,113.89
2023-04-09T19:50:00.899Z,114.05
2023-04-09T19:52:29.191Z,113.71
2023-04-09T19:54:58.029Z,114.31
2023-04-09T19:57:27.710Z,114.29
2023-04-09T19:59:56.443Z,114.42
2023-04-09T20:02:24.914Z,114.90
2023-04-09T20:04:54.462Z,114.47
2023-04-09T20:07:22.804Z,114.86
2023-04-09T20:09:52.336Z,114.50
2023-04-09T20:12:21.768Z,115.03
2023-04-09T20:14:51.840Z,114.59
2023-04-09T20:17:21.229Z,114.54
2023-04-09T20:19:49.745Z,114.28
2023-04-09T20:22:18.484Z,114.50
2023-04-09T20:24:48.165Z,114.53
2023-04-09T20:27:16.484Z,114.67
2023-04-09T20:29:44.755Z,114.93
2023-04-09T20:32:14.550Z,114.57
2023-04-09T20:34:43.523Z,114.57
2023-04-09T20:37:11.746Z,114.77
2023-04-09T20:39:39.969Z,114.53
2023-04-09T20:42:08.209Z,114.98
2023-04-09T20:44:36.542Z,113.72
2023-04-09T20:47:04.764Z,114.57
2023-04-09T20:49:34.450Z,114.47
2023-04-09T20:52:02.673Z,113.83
2023-04-09T20:54:30.973Z,115.09
2023-04-09T20:57:00.194Z,114.32
2023-04-09T20:59:28.848Z,115.06
2023-04-09T21:01:57.278Z,114.76
2023-04-09T21:04:26.434Z,113.96
2023-04-09T21:06:56.144Z,114.31
2023-04-09T21:09:24.691Z,114.96
2023-04-09T21:11:52.961Z,114.12
2023-04-09T21:14:21.166Z,114.80
2023-04-09T21:16:49.446Z,113.45
2023-04-09T21:19:17.781Z,112.96
2023-04-09T21:21:46.192Z,112.76
2023-04-09T21:24:16.531Z,112.48
2023-04-09T21:26:51.766Z,110.90
2023-04-09T21:29:21.438Z,111.03
2023-04-09T21:31:49.993Z,109.99
2023-04-09T21:34:18.233Z,111.41
2023-04-09T21:36:46.549Z,111.42
2023-04-09T21:39:16.127Z,108.25
2023-04-09T21:41:44.352Z,108.37
2023-04-09T21:44:13.460Z,108.85
2023-04-09T21:46:42.924Z,108.33
2023-04-09T21:49:11.440Z,107.55
2023-04-09T21:51:39.838Z,108.24
2023-04-09T21:54:11.137Z,106.29
2023-04-09T21:56:41.226Z,106.95
2023-04-09T21:59:09.740Z,108.35
2023-04-09T22:01:38.083Z,108.11
2023-04-09T22:04:06.520Z,109.75
2023-04-09T22:06:34.930Z,108.02
2023-04-09T22:09:03.622Z,110.41
2023-04-09T22:11:34.174Z,111.16
2023-04-09T22:14:03.788Z,109.25
2023-04-09T22:16:32.157Z,109.30
2023-04-09T22:19:00.543Z,109.56
2023-04-09T22:21:28.838Z,108.88
2023-04-09T22:23:57.191Z,108.50
2023-04-09T22:26:25.438Z,110.70
2023-04-09T22:28:53.956Z,111.34
2023-04-09T22:31:23.811Z,111.63
2023-04-09T22:33:52.061Z,110.89
2023-04-09T22:36:20.400Z,110.58
2023-04-09T22:38:48.653Z,110.73
2023-04-09T22:41:17.649Z,108.16
2023-04-09T22:43:46.083Z,109.12
2023-04-09T22:46:14.404Z,99.94
2023-04-09T22:48:45.222Z,99.87
2023-04-09T22:51:14.122Z,99.49
2023-04-09T22:53:42.427Z,98.91
2023-04-09T22:56:11.040Z,101.30
2023-04-09T22:58:39.414Z,105.78
2023-04-09T23:01:08.291Z,106.35
2023-04-09T23:03:36.647Z,107.65
2023-04-09T23:06:06.979Z,106.64
2023-04-09T23:08:35.310Z,107.33
2023-04-09T23:11:05.364Z,106.59
2023-04-09T23:13:33.650Z,106.53
2023-04-09T23:16:04.929Z,108.87
2023-04-09T23:18:33.187Z,105.95
2023-04-09T23:21:07.050Z,105.72
2023-04-09T23:23:36.165Z,107.27
2023-04-09T23:26:04.814Z,107.92
2023-04-09T23:28:33.050Z,105.29
2023-04-09T23:31:01.374Z,106.49
2023-04-09T23:33:29.661Z,108.92
2023-04-09T23:35:57.871Z,108.27
2023-04-09T23:38:27.562Z,110.46
2023-04-09T23:40:55.938Z,108.54
2023-04-09T23:43:24.247Z,106.09
2023-04-09T23:45:52.468Z,106.56
2023-04-09T23:48:21.079Z,107.79
2023-04-09T23:50:49.452Z,107.64
2023-04-09T23:53:17.678Z,104.38
2023-04-09T23:55:47.870Z,106.38
2023-04-09T23:58:16.121Z,104.51
